createdAt,value
2023-01-20T00:01:31.767Z,100.00
2023-01-20T00:04:02.567Z,100.00
2023-01-20T00:06:32.867Z,100.00
2023-01-20T00:09:04.271Z,100.00
2023-01-20T00:11:34.043Z,100.00
2023-01-20T00:14:05.009Z,100.00
2023-01-20T00:16:37.131Z,100.00
2023-01-20T00:19:06.985Z,100.00
2023-01-20T00:21:37.078Z,100.00
2023-01-20T00:24:07.334Z,100.00
2023-01-20T00:26:36.941Z,100.00
2023-01-20T00:29:06.507Z,100.00
2023-01-20T00:31:38.973Z,100.00
2023-01-20T00:34:08.546Z,100.00
2023-01-20T00:36:38.127Z,100.00
2023-01-20T00:39:08.106Z,100.00
2023-01-20T00:41:37.640Z,100.00
2023-01-20T00:44:07.421Z,100.00
2023-01-20T00:46:39.524Z,100.00
2023-01-20T00:49:09.049Z,100.00
2023-01-20T00:51:38.603Z,100.00
2023-01-20T00:54:08.639Z,100.00
2023-01-20T00:56:38.198Z,100.00
2023-01-20T00:59:07.687Z,100.00
2023-01-20T01:01:39.899Z,100.00
2023-01-20T01:04:09.564Z,100.00
2023-01-20T01:06:39.595Z,100.00
2023-01-20T01:09:09.188Z,100.00
2023-01-20T01:11:38.749Z,100.00
2023-01-20T01:14:08.270Z,100.00
2023-01-20T01:16:40.411Z,100.00
2023-01-20T01:19:10.194Z,100.00
2023-01-20T01:21:39.810Z,100.00
2023-01-20T01:24:09.432Z,100.00
2023-01-20T01:26:38.973Z,100.00
2023-01-20T01:29:08.501Z,100.00
2023-01-20T01:31:40.658Z,100.00
2023-01-20T01:34:10.976Z,100.00
2023-01-20T01:36:40.540Z,100.00
2023-01-20T01:39:10.162Z,100.00
2023-01-20T01:41:39.738Z,100.00
2023-01-20T01:44:11.998Z,100.00
2023-01-20T01:46:45.497Z,100.00
2023-01-20T01:49:20.474Z,100.00
2023-01-20T01:51:58.442Z,100.00
2023-01-20T01:54:32.561Z,100.00
2023-01-20T01:57:02.896Z,100.00
2023-01-20T01:59:32.794Z,100.00
2023-01-20T02:02:05.110Z,100.00
2023-01-20T02:04:35.228Z,100.00
2023-01-20T02:07:10.793Z,100.00
2023-01-20T02:09:41.023Z,100.00
2023-01-20T02:12:13.611Z,100.00
2023-01-20T02:14:46.064Z,100.00
2023-01-20T02:17:28.225Z,100.00
2023-01-20T02:20:25.939Z,100.00
2023-01-20T02:23:02.411Z,100.00
2023-01-20T02:26:10.469Z,100.00
2023-01-20T02:29:09.753Z,100.00
2023-01-20T02:32:04.770Z,100.00
2023-01-20T02:34:38.134Z,100.00
2023-01-20T02:37:13.514Z,100.00
2023-01-20T02:39:47.353Z,100.00
2023-01-20T02:42:24.909Z,100.00
2023-01-20T02:44:59.671Z,100.00
2023-01-20T02:47:35.855Z,100.00
2023-01-20T02:50:12.784Z,100.00
2023-01-20T02:52:46.461Z,100.00
2023-01-20T02:55:31.723Z,100.00
2023-01-20T02:58:05.842Z,100.00
2023-01-20T03:00:39.579Z,100.00
2023-01-20T03:03:15.673Z,100.00
2023-01-20T03:05:51.571Z,100.00
2023-01-20T03:08:23.643Z,100.00
2023-01-20T03:10:57.290Z,100.00
2023-01-20T03:13:32.682Z,100.00
2023-01-20T03:16:06.414Z,100.00
2023-01-20T03:18:40.421Z,100.00
2023-01-20T03:21:12.021Z,100.00
2023-01-20T03:23:45.589Z,100.00
2023-01-20T03:26:17.607Z,100.00
2023-01-20T03:28:48.909Z,100.00
2023-01-20T03:31:24.158Z,100.00
2023-01-20T03:33:59.568Z,100.00
2023-01-20T03:36:32.484Z,100.00
2023-01-20T03:39:02.257Z,100.00
2023-01-20T03:41:41.110Z,100.00
2023-01-20T03:44:15.351Z,100.00
2023-01-20T03:46:52.270Z,100.00
2023-01-20T03:49:31.073Z,100.00
2023-01-20T03:52:06.382Z,100.00
2023-01-20T03:54:46.725Z,100.00
2023-01-20T03:57:21.005Z,100.00
2023-01-20T03:59:53.790Z,100.00
2023-01-20T04:02:25.563Z,100.00
2023-01-20T04:04:59.359Z,100.00
2023-01-20T04:07:29.522Z,100.00
2023-01-20T04:10:04.051Z,100.00
2023-01-20T04:12:35.885Z,100.00
2023-01-20T04:15:05.648Z,100.00
2023-01-20T04:17:35.298Z,100.00
2023-01-20T04:20:11.985Z,100.00
2023-01-20T04:22:48.823Z,100.00
2023-01-20T04:25:25.510Z,100.00
2023-01-20T04:27:55.081Z,100.00
2023-01-20T04:30:24.730Z,100.00
2023-01-20T04:32:54.336Z,100.00
2023-01-20T04:35:26.852Z,100.00
2023-01-20T04:37:56.395Z,100.00
2023-01-20T04:40:25.931Z,100.00
2023-01-20T04:42:55.491Z,100.00
2023-01-20T04:45:25.059Z,100.00
2023-01-20T04:47:54.623Z,100.00
2023-01-20T04:50:26.737Z,100.00
2023-01-20T04:53:00.528Z,100.00
2023-01-20T04:55:30.278Z,100.00
2023-01-20T04:57:59.828Z,100.00
2023-01-20T05:00:29.550Z,100.00
2023-01-20T05:03:00.255Z,100.00
2023-01-20T05:05:32.355Z,100.00
2023-01-20T05:08:02.975Z,100.00
2023-01-20T05:10:32.521Z,100.00
2023-01-20T05:13:02.761Z,100.00
2023-01-20T05:15:32.334Z,100.00
2023-01-20T05:18:01.932Z,100.00
2023-01-20T05:20:34.098Z,100.00
2023-01-20T05:23:03.810Z,100.00
2023-01-20T05:25:33.380Z,100.00
2023-01-20T05:28:02.948Z,100.00
2023-01-20T05:30:32.527Z,100.00
2023-01-20T05:33:02.090Z,100.00
2023-01-20T05:35:34.162Z,100.00
2023-01-20T05:38:03.653Z,100.00
2023-01-20T05:40:33.355Z,100.00
2023-01-20T05:43:03.239Z,100.00
2023-01-20T05:45:33.542Z,100.00
2023-01-20T05:48:04.705Z,100.00
2023-01-20T05:50:36.991Z,100.00
2023-01-20T05:53:06.594Z,100.00
2023-01-20T05:55:36.148Z,100.00
2023-01-20T05:58:06.257Z,100.00
2023-01-20T06:00:35.783Z,100.00
2023-01-20T06:03:05.550Z,100.00
2023-01-20T06:05:37.722Z,100.00
2023-01-20T06:08:07.982Z,100.00
2023-01-20T06:10:37.536Z,100.00
2023-01-20T06:13:07.048Z,100.00
2023-01-20T06:15:36.558Z,100.00
2023-01-20T06:18:06.586Z,100.00
2023-01-20T06:20:38.788Z,100.00
2023-01-20T06:23:08.313Z,100.00
2023-01-20T06:25:37.831Z,100.00
2023-01-20T06:28:07.705Z,100.00
2023-01-20T06:30:38.272Z,100.00
2023-01-20T06:33:10.948Z,100.00
2023-01-20T06:35:43.095Z,100.00
2023-01-20T06:38:12.637Z,100.00
2023-01-20T06:40:42.133Z,100.00
2023-01-20T06:43:11.688Z,100.00
2023-01-20T06:45:41.261Z,100.00
2023-01-20T06:48:10.818Z,100.00
2023-01-20T06:50:42.902Z,100.00
2023-01-20T06:53:12.489Z,100.00
2023-01-20T06:55:41.993Z,100.00
2023-01-20T06:58:11.582Z,100.00
2023-01-20T07:00:41.203Z,100.00
2023-01-20T07:03:14.001Z,100.00
2023-01-20T07:05:46.196Z,100.00
2023-01-20T07:08:15.729Z,100.00
2023-01-20T07:10:45.704Z,100.00
2023-01-20T07:13:15.297Z,100.00
2023-01-20T07:15:44.856Z,100.00
2023-01-20T07:18:14.455Z,100.00
2023-01-20T07:20:46.567Z,100.00
2023-01-20T07:23:16.488Z,100.00
2023-01-20T07:25:46.012Z,100.00
2023-01-20T07:28:15.657Z,100.00
2023-01-20T07:30:45.276Z,100.00
2023-01-20T07:33:14.857Z,100.00
2023-01-20T07:35:47.052Z,100.00
2023-01-20T07:38:16.868Z,100.00
2023-01-20T07:40:46.363Z,100.00
2023-01-20T07:43:15.922Z,100.00
2023-01-20T07:45:45.504Z,100.00
2023-01-20T07:48:15.058Z,100.00
2023-01-20T07:50:47.220Z,100.00
2023-01-20T07:53:16.845Z,100.00
2023-01-20T07:55:46.409Z,100.00
2023-01-20T07:58:15.939Z,100.00
2023-01-20T08:00:48.735Z,100.00
2023-01-20T08:03:18.494Z,100.00
2023-01-20T08:05:50.592Z,100.00
2023-01-20T08:08:20.114Z,100.00
2023-01-20T08:10:56.592Z,100.00
2023-01-20T08:13:26.184Z,100.00
2023-01-20T08:15:55.754Z,100.00
2023-01-20T08:18:25.361Z,100.00
2023-01-20T08:20:57.494Z,100.00
2023-01-20T08:23:27.433Z,100.00
2023-01-20T08:26:00.441Z,100.00
2023-01-20T08:28:30.693Z,100.00
2023-01-20T08:31:06.725Z,100.00
2023-01-20T08:33:36.358Z,100.00
2023-01-20T08:36:12.105Z,100.00
2023-01-20T08:38:42.266Z,100.00
2023-01-20T08:41:12.850Z,100.00
2023-01-20T08:43:42.755Z,100.00
2023-01-20T08:46:14.565Z,100.00
2023-01-20T08:48:45.610Z,100.00
2023-01-20T08:51:20.378Z,100.00
2023-01-20T08:53:50.501Z,100.00
2023-01-20T08:56:20.967Z,100.00
2023-01-20T08:58:50.664Z,100.00
2023-01-20T09:01:23.965Z,100.00
2023-01-20T09:04:05.025Z,100.00
2023-01-20T09:06:41.683Z,100.00
2023-01-20T09:09:11.348Z,100.00
2023-01-20T09:11:44.820Z,100.00
2023-01-20T09:14:14.648Z,100.00
2023-01-20T09:16:44.253Z,100.00
2023-01-20T09:19:13.786Z,100.00
2023-01-20T09:21:45.932Z,100.00
2023-01-20T09:24:15.689Z,100.00
2023-01-20T09:26:45.522Z,100.00
2023-01-20T09:29:17.195Z,100.00
2023-01-20T09:31:51.409Z,100.00
2023-01-20T09:34:24.659Z,100.00
2023-01-20T09:37:19.323Z,100.00
2023-01-20T09:40:07.764Z,100.00
2023-01-20T09:43:00.516Z,100.00
2023-01-20T09:45:35.049Z,100.00
2023-01-20T09:48:26.359Z,100.00
2023-01-20T09:51:14.259Z,100.00
2023-01-20T09:53:58.641Z,100.00
2023-01-20T09:56:30.496Z,100.00
2023-01-20T09:59:06.133Z,100.00
2023-01-20T10:01:38.845Z,100.00
2023-01-20T10:04:16.362Z,100.00
2023-01-20T10:06:50.441Z,100.00
2023-01-20T10:09:31.560Z,100.00
2023-01-20T10:12:08.802Z,100.00
2023-01-20T10:14:43.637Z,100.00
2023-01-20T10:17:19.104Z,100.00
2023-01-20T10:19:56.260Z,100.00
2023-01-20T10:22:32.278Z,100.00
2023-01-20T10:25:09.579Z,100.00
2023-01-20T10:27:44.352Z,100.00
2023-01-20T10:30:16.856Z,100.00
2023-01-20T10:32:53.262Z,99.63
2023-01-20T10:35:26.994Z,99.91
2023-01-20T10:37:58.607Z,98.90
2023-01-20T10:40:39.053Z,97.30
2023-01-20T10:43:14.019Z,97.51
2023-01-20T10:46:04.057Z,99.49
2023-01-20T10:48:52.747Z,98.32
2023-01-20T10:51:33.960Z,100.00
2023-01-20T10:54:15.324Z,100.00
2023-01-20T10:56:53.679Z,100.00
2023-01-20T10:59:32.004Z,100.00
2023-01-20T11:02:12.445Z,100.00
2023-01-20T11:04:43.677Z,100.00
2023-01-20T11:07:18.911Z,100.00
2023-01-20T11:09:51.455Z,100.00
2023-01-20T11:12:28.293Z,100.00
2023-01-20T11:15:02.262Z,100.00
2023-01-20T11:17:32.027Z,100.00
2023-01-20T11:20:07.982Z,100.00
2023-01-20T11:22:40.257Z,100.00
2023-01-20T11:25:26.432Z,100.00
2023-01-20T11:27:59.004Z,100.00
2023-01-20T11:30:32.298Z,100.00
2023-01-20T11:33:18.925Z,100.00
2023-01-20T11:36:03.241Z,100.00
2023-01-20T11:38:34.266Z,100.00
2023-01-20T11:41:03.870Z,100.00
2023-01-20T11:43:40.769Z,100.00
2023-01-20T11:46:25.191Z,100.00
2023-01-20T11:49:19.498Z,100.00
2023-01-20T11:51:54.627Z,100.00
2023-01-20T11:54:25.872Z,100.00
2023-01-20T11:56:58.607Z,100.00
2023-01-20T11:59:35.039Z,100.00
2023-01-20T12:02:24.674Z,100.00
2023-01-20T12:05:09.827Z,100.00
2023-01-20T12:07:44.778Z,100.00
2023-01-20T12:10:21.607Z,100.00
2023-01-20T12:12:54.003Z,100.00
2023-01-20T12:15:28.988Z,100.00
2023-01-20T12:18:02.597Z,98.52
2023-01-20T12:20:54.219Z,96.95
2023-01-20T12:23:35.665Z,97.24
2023-01-20T12:26:07.471Z,96.44
2023-01-20T12:28:41.651Z,100.00
2023-01-20T12:31:17.347Z,100.00
2023-01-20T12:33:47.505Z,100.00
2023-01-20T12:36:52.795Z,100.00
2023-01-20T12:39:42.236Z,100.00
2023-01-20T12:42:47.871Z,100.00
2023-01-20T12:45:29.052Z,98.61
2023-01-20T12:48:26.266Z,94.41
2023-01-20T12:51:11.493Z,91.52
2023-01-20T12:53:59.216Z,93.10
2023-01-20T12:56:42.574Z,90.17
2023-01-20T12:59:27.240Z,87.49
2023-01-20T13:02:11.866Z,86.39
2023-01-20T13:05:02.724Z,84.50
2023-01-20T13:07:51.383Z,85.13
2023-01-20T13:10:50.918Z,85.52
2023-01-20T13:13:40.246Z,85.02
2023-01-20T13:16:23.706Z,85.12
2023-01-20T13:19:07.680Z,85.00
2023-01-20T13:21:41.213Z,84.73
2023-01-20T13:24:19.649Z,84.56
2023-01-20T13:26:51.163Z,84.06
2023-01-20T13:29:25.411Z,83.84
2023-01-20T13:31:55.577Z,85.91
2023-01-20T13:34:43.136Z,84.98
2023-01-20T13:37:31.857Z,85.60
2023-01-20T13:40:02.482Z,84.27
2023-01-20T13:42:49.457Z,83.61
2023-01-20T13:45:24.812Z,83.21
2023-01-20T13:47:57.596Z,87.20
2023-01-20T13:50:30.896Z,88.96
2023-01-20T13:53:16.645Z,91.08
2023-01-20T13:55:57.044Z,90.09
2023-01-20T13:58:27.757Z,90.64
2023-01-20T14:00:59.255Z,90.44
2023-01-20T14:03:31.317Z,87.60
2023-01-20T14:06:02.757Z,86.65
2023-01-20T14:08:41.760Z,87.77
2023-01-20T14:11:16.202Z,88.46
2023-01-20T14:13:54.260Z,87.02
2023-01-20T14:16:28.266Z,84.41
2023-01-20T14:19:00.302Z,82.50
2023-01-20T14:21:31.378Z,81.58
2023-01-20T14:24:04.294Z,81.85
2023-01-20T14:26:34.885Z,82.58
2023-01-20T14:29:05.267Z,82.57
2023-01-20T14:31:40.803Z,83.86
2023-01-20T14:34:26.964Z,87.78
2023-01-20T14:36:59.236Z,92.32
2023-01-20T14:39:33.381Z,94.17
2023-01-20T14:42:04.292Z,96.65
2023-01-20T14:44:35.535Z,97.23
2023-01-20T14:47:06.818Z,98.53
2023-01-20T14:49:39.496Z,100.00
2023-01-20T14:52:10.343Z,100.00
2023-01-20T14:54:46.200Z,100.00
2023-01-20T14:57:25.063Z,100.00
2023-01-20T15:00:16.471Z,100.00
2023-01-20T15:03:01.377Z,100.00
2023-01-20T15:05:41.038Z,100.00
2023-01-20T15:08:26.337Z,100.00
2023-01-20T15:11:23.241Z,100.00
2023-01-20T15:14:08.716Z,100.00
2023-01-20T15:16:47.567Z,100.00
2023-01-20T15:19:36.018Z,100.00
2023-01-20T15:22:22.096Z,100.00
2023-01-20T15:24:52.772Z,100.00
2023-01-20T15:27:29.273Z,100.00
2023-01-20T15:30:19.489Z,100.00
2023-01-20T15:32:50.379Z,100.00
2023-01-20T15:35:23.021Z,100.00
2023-01-20T15:37:53.241Z,100.00
2023-01-20T15:40:24.615Z,100.00
2023-01-20T15:42:57.548Z,100.00
2023-01-20T15:45:28.195Z,100.00
2023-01-20T15:47:58.464Z,100.00
2023-01-20T15:50:31.201Z,100.00
2023-01-20T15:53:01.003Z,100.00
2023-01-20T15:55:30.735Z,100.00
2023-01-20T15:58:03.744Z,100.00
2023-01-20T16:00:33.396Z,100.00
2023-01-20T16:03:03.678Z,100.00
2023-01-20T16:05:33.225Z,100.00
2023-01-20T16:08:02.771Z,100.00
2023-01-20T16:10:32.310Z,100.00
2023-01-20T16:13:04.603Z,100.00
2023-01-20T16:15:34.158Z,100.00
2023-01-20T16:18:03.748Z,100.00
2023-01-20T16:20:33.814Z,100.00
2023-01-20T16:23:05.875Z,100.00
2023-01-20T16:25:35.651Z,100.00
2023-01-20T16:28:14.801Z,100.00
2023-01-20T16:30:44.494Z,100.00
2023-01-20T16:33:22.902Z,100.00
2023-01-20T16:35:54.212Z,100.00
2023-01-20T16:38:25.759Z,100.00
2023-01-20T16:40:58.300Z,100.00
2023-01-20T16:43:30.572Z,100.00
2023-01-20T16:46:00.303Z,100.00
2023-01-20T16:48:29.877Z,100.00
2023-01-20T16:51:04.549Z,100.00
2023-01-20T16:53:34.729Z,100.00
2023-01-20T16:56:04.308Z,100.00
2023-01-20T16:58:36.451Z,100.00
2023-01-20T17:01:12.138Z,100.00
2023-01-20T17:03:42.389Z,100.00
2023-01-20T17:06:13.889Z,100.00
2023-01-20T17:08:45.813Z,100.00
2023-01-20T17:11:19.889Z,100.00
2023-01-20T17:13:52.478Z,100.00
2023-01-20T17:16:23.487Z,100.00
2023-01-20T17:18:53.871Z,100.00
2023-01-20T17:21:25.004Z,100.00
2023-01-20T17:23:55.934Z,100.00
2023-01-20T17:26:26.492Z,100.00
2023-01-20T17:29:02.237Z,100.00
2023-01-20T17:31:34.577Z,100.00
2023-01-20T17:34:04.189Z,100.00
2023-01-20T17:36:34.912Z,100.00
2023-01-20T17:39:05.826Z,100.00
2023-01-20T17:41:36.289Z,100.00
2023-01-20T17:44:08.673Z,100.00
2023-01-20T17:46:38.228Z,100.00
2023-01-20T17:49:08.155Z,100.00
2023-01-20T17:51:37.756Z,100.00
2023-01-20T17:54:07.364Z,100.00
2023-01-20T17:56:36.899Z,100.00
2023-01-20T17:59:09.021Z,100.00
2023-01-20T18:01:38.567Z,100.00
2023-01-20T18:04:10.466Z,100.00
2023-01-20T18:06:40.817Z,100.00
2023-01-20T18:09:10.504Z,100.00
2023-01-20T18:11:40.310Z,100.00
2023-01-20T18:14:12.725Z,100.00
2023-01-20T18:16:43.677Z,100.00
2023-01-20T18:19:15.472Z,100.00
2023-01-20T18:21:45.886Z,100.00
2023-01-20T18:24:15.671Z,100.00
2023-01-20T18:26:45.266Z,100.00
2023-01-20T18:29:19.282Z,100.00
2023-01-20T18:31:49.425Z,100.00
2023-01-20T18:34:19.168Z,100.00
2023-01-20T18:36:49.833Z,100.00
2023-01-20T18:39:21.775Z,100.00
2023-01-20T18:41:52.296Z,100.00
2023-01-20T18:44:24.988Z,100.00
2023-01-20T18:46:54.574Z,100.00
2023-01-20T18:49:24.453Z,100.00
2023-01-20T18:51:53.983Z,100.00
2023-01-20T18:54:25.851Z,100.00
2023-01-20T18:56:55.777Z,100.00
2023-01-20T18:59:28.310Z,100.00
2023-01-20T19:01:59.293Z,100.00
2023-01-20T19:04:30.001Z,100.00
2023-01-20T19:06:59.611Z,100.00
2023-01-20T19:09:29.400Z,100.00
2023-01-20T19:12:01.610Z,100.00
2023-01-20T19:14:33.758Z,100.00
2023-01-20T19:17:03.316Z,100.00
2023-01-20T19:19:32.875Z,100.00
2023-01-20T19:22:02.508Z,100.00
2023-01-20T19:24:32.300Z,100.00
2023-01-20T19:27:03.084Z,100.00
2023-01-20T19:29:35.218Z,100.00
2023-01-20T19:32:04.756Z,100.00
2023-01-20T19:34:34.334Z,100.00
2023-01-20T19:37:04.056Z,100.00
2023-01-20T19:39:33.709Z,100.00
2023-01-20T19:42:03.269Z,100.00
2023-01-20T19:44:35.394Z,100.00
2023-01-20T19:47:05.053Z,100.00
2023-01-20T19:49:34.621Z,100.00
2023-01-20T19:52:04.218Z,100.00
2023-01-20T19:54:34.423Z,100.00
2023-01-20T19:57:03.970Z,100.00
2023-01-20T19:59:40.756Z,100.00
2023-01-20T20:02:11.692Z,100.00
2023-01-20T20:04:41.580Z,100.00
2023-01-20T20:07:11.245Z,100.00
2023-01-20T20:09:40.916Z,100.00
2023-01-20T20:12:10.505Z,100.00
2023-01-20T20:14:48.722Z,100.00
2023-01-20T20:17:18.283Z,100.00
2023-01-20T20:19:48.151Z,100.00
2023-01-20T20:22:17.705Z,100.00
2023-01-20T20:24:47.305Z,100.00
2023-01-20T20:27:16.849Z,100.00
2023-01-20T20:29:48.991Z,100.00
2023-01-20T20:32:18.701Z,100.00
2023-01-20T20:34:48.681Z,100.00
2023-01-20T20:37:18.326Z,100.00
2023-01-20T20:39:47.849Z,100.00
2023-01-20T20:42:17.832Z,100.00
2023-01-20T20:44:49.984Z,100.00
2023-01-20T20:47:20.378Z,100.00
2023-01-20T20:49:49.949Z,100.00
2023-01-20T20:52:19.569Z,100.00
2023-01-20T20:54:49.579Z,100.00
2023-01-20T20:57:19.113Z,100.00
2023-01-20T20:59:58.889Z,100.00
2023-01-20T21:02:29.419Z,100.00
2023-01-20T21:04:59.026Z,100.00
2023-01-20T21:07:28.600Z,100.00
2023-01-20T21:09:58.527Z,100.00
2023-01-20T21:12:28.105Z,100.00
2023-01-20T21:15:00.298Z,100.00
2023-01-20T21:17:29.832Z,100.00
2023-01-20T21:20:00.003Z,100.00
2023-01-20T21:22:29.701Z,100.00
2023-01-20T21:24:59.304Z,100.00
2023-01-20T21:27:28.899Z,100.00
2023-01-20T21:30:01.021Z,100.00
2023-01-20T21:32:30.901Z,100.00
2023-01-20T21:35:01.980Z,100.00
2023-01-20T21:37:31.517Z,100.00
2023-01-20T21:40:01.090Z,100.00
2023-01-20T21:42:30.616Z,100.00
2023-01-20T21:45:00.208Z,100.00
2023-01-20T21:47:29.739Z,100.00
2023-01-20T21:50:11.824Z,100.00
2023-01-20T21:52:45.291Z,100.00
2023-01-20T21:55:18.965Z,100.00
2023-01-20T21:57:51.062Z,100.00
2023-01-20T22:00:24.274Z,100.00
2023-01-20T22:02:53.849Z,100.00
2023-01-20T22:05:23.480Z,100.00
2023-01-20T22:07:53.028Z,100.00
2023-01-20T22:10:22.539Z,100.00
2023-01-20T22:12:52.182Z,100.00
2023-01-20T22:15:24.281Z,100.00
2023-01-20T22:17:53.803Z,100.00
2023-01-20T22:20:23.328Z,100.00
2023-01-20T22:22:52.871Z,100.00
2023-01-20T22:25:22.432Z,100.00
2023-01-20T22:27:51.972Z,100.00
2023-01-20T22:30:24.183Z,100.00
2023-01-20T22:32:53.718Z,100.00
2023-01-20T22:35:23.235Z,100.00
2023-01-20T22:37:52.752Z,100.00
2023-01-20T22:40:22.412Z,100.00
2023-01-20T22:42:51.930Z,100.00
2023-01-20T22:45:24.135Z,100.00
2023-01-20T22:47:53.696Z,100.00
2023-01-20T22:50:23.221Z,100.00
2023-01-20T22:52:52.742Z,100.00
2023-01-20T22:55:22.238Z,100.00
2023-01-20T22:57:52.524Z,100.00
2023-01-20T23:00:25.307Z,100.00
2023-01-20T23:02:54.854Z,100.00
2023-01-20T23:05:24.448Z,100.00
2023-01-20T23:07:53.961Z,100.00
2023-01-20T23:10:35.808Z,100.00
2023-01-20T23:13:05.357Z,100.00
2023-01-20T23:15:37.451Z,100.00
2023-01-20T23:18:07.532Z,100.00
2023-01-20T23:20:37.171Z,100.00
2023-01-20T23:23:07.050Z,100.00
2023-01-20T23:25:36.821Z,100.00
2023-01-20T23:28:06.427Z,100.00
2023-01-20T23:30:38.859Z,100.00
2023-01-20T23:33:09.298Z,100.00
2023-01-20T23:35:39.852Z,100.00
2023-01-20T23:38:09.494Z,100.00
2023-01-20T23:40:39.181Z,100.00
2023-01-20T23:43:09.031Z,100.00
2023-01-20T23:45:41.115Z,100.00
2023-01-20T23:48:10.759Z,100.00
2023-01-20T23:50:40.297Z,100.00
2023-01-20T23:53:09.827Z,100.00
2023-01-20T23:55:39.814Z,100.00
2023-01-20T23:58:09.340Z,100.00
